KPSX

Palacios Municipal Airport

Palacios, Texas, USA
METAR KPSX 100553Z AUTO 35007KT 9SM CLR 07/06 A3039 RMK AO2 SLP289 T00670056 10094 20067 401000067 51011
Observed Flight Rules
Dec-10 @ 05:53 UTC (56 minutes ago) Visual Flight Rules
Wind Visibility Clouds
350° at 7 knots 9 miles
  • Clear skies
Temperatures Readings
Current 7°C / 45°F
Dewpoint 6°C / 43°F
Humidity 93%
Altimeter 30.39" Hg
Pressure 1028.9 hPa
Elevation 5
METAR KPSX 100553Z AUTO 35007KT 9SM CLR 07/06 A3039 RMK AO2 SLP289 T00670056 10094 20067 401000067 51011
Observed Flight Rules
Dec-10 @ 05:53 UTC
(56 minutes ago)
VFR
Wind Visibility
350° at 7 knots 9 miles
Clouds
  • Clear skies
Temperature Dewpoint
7°C / 45°F 6°C / 43°F
Humidity Altimeter Pressure
93% 30.39" Hg 1028.9 hPa